F/V Le Dolmen — FHMD — position and weather

sailwx.info

Track history (hours):
 
Tides and Currents Weather Stations Pressure Air Temp Water Temp Dewpoint Dewpoint Depression Visibility Wind Speed Wind Dir Waves Ship Positions

F/V Le Dolmen

Last reported at 2015-May-25 15:18 UTC. Time now 2015-May-27 05:50 UTC.
Position N 47°44' W 003°22'.

Length 18 m.

Type: Fishing. MMSI: 228374000.

Date/timePositionNaut miles runAvg speedWind from/ knotsBaromVisibWave heightAir tempDewpointWater temp
2015-May-25 15:18N 47°44' W 003°22'0 0.1
2015-May-25 14:33N 47°44' W 003°22'0 0.1
2015-May-25 13:33N 47°44' W 003°22'1 0.7
2015-May-25 12:33N 47°43' W 003°22'9 9.3
2015-May-25 11:33N 47°34' W 003°25'10 9.8
2015-May-25 10:33N 47°26' W 003°33'23 9.4
2015-May-25 08:06N 47°07' W 003°52'5 9.3
2015-May-25 07:33N 47°03' W 003°56'  
2015-May-21 14:14N 47°40' W 003°30'6 8.5
2015-May-21 13:33N 47°42' W 003°22'2 1.7
2015-May-21 12:33N 47°44' W 003°22'0 0.0
2015-May-21 11:33N 47°44' W 003°22'0 0.0
2015-May-21 10:33N 47°44' W 003°22'2 1.9
2015-May-21 09:33N 47°42' W 003°22'5 4.9
2015-May-21 08:33N 47°40' W 003°29'6 6.3
2015-May-21 07:33N 47°39' W 003°39'3 0.1
2015-May-19 22:28N 47°40' W 003°34'8 8.5
2015-May-19 21:33N 47°42' W 003°23'2 1.9
2015-May-19 20:33N 47°44' W 003°22'0 0.0
2015-May-19 19:33N 47°44' W 003°22'0 0.0
2015-May-19 18:33N 47°44' W 003°22'0 0.0
2015-May-19 17:33N 47°44' W 003°22'0 0.0
2015-May-19 16:33N 47°44' W 003°22'0 0.0
2015-May-19 15:33N 47°44' W 003°22'0 0.0
2015-May-19 14:33N 47°44' W 003°22'0 0.0
2015-May-19 13:33N 47°44' W 003°22'0 0.1
2015-May-19 12:33N 47°44' W 003°22'0 0.0
2015-May-19 11:33N 47°44' W 003°22'0 0.0
2015-May-19 10:33N 47°44' W 003°22'0 0.0
2015-May-19 09:33N 47°44' W 003°22'2 1.8
2015-May-19 08:33N 47°42' W 003°22'9 8.8
2015-May-19 07:32N 47°38' W 003°34'  
Track history (hours):
 
Tides and Currents Weather Stations Pressure Air Temp Water Temp Dewpoint Dewpoint Depression Visibility Wind Speed Wind Dir Waves Ship Positions

F/V Le Dolmen

Last reported at 2015-May-25 15:18 UTC. Time now 2015-May-27 05:50 UTC.
Position N 47°44' W 003°22'.

Length 18 m.

Type: Fishing. MMSI: 228374000.

Date/timePositionNaut miles runAvg speedWind from/ knotsBaromVisibWave heightAir tempDewpointWater temp
2015-May-25 15:18N 47°44' W 003°22'0 0.1
2015-May-25 14:33N 47°44' W 003°22'0 0.1
2015-May-25 13:33N 47°44' W 003°22'1 0.7
2015-May-25 12:33N 47°43' W 003°22'9 9.3
2015-May-25 11:33N 47°34' W 003°25'10 9.8
2015-May-25 10:33N 47°26' W 003°33'23 9.4
2015-May-25 08:06N 47°07' W 003°52'5 9.3
2015-May-25 07:33N 47°03' W 003°56'  
2015-May-21 14:14N 47°40' W 003°30'6 8.5
2015-May-21 13:33N 47°42' W 003°22'2 1.7
2015-May-21 12:33N 47°44' W 003°22'0 0.0
2015-May-21 11:33N 47°44' W 003°22'0 0.0
2015-May-21 10:33N 47°44' W 003°22'2 1.9
2015-May-21 09:33N 47°42' W 003°22'5 4.9
2015-May-21 08:33N 47°40' W 003°29'6 6.3
2015-May-21 07:33N 47°39' W 003°39'3 0.1
2015-May-19 22:28N 47°40' W 003°34'8 8.5
2015-May-19 21:33N 47°42' W 003°23'2 1.9
2015-May-19 20:33N 47°44' W 003°22'0 0.0
2015-May-19 19:33N 47°44' W 003°22'0 0.0
2015-May-19 18:33N 47°44' W 003°22'0 0.0
2015-May-19 17:33N 47°44' W 003°22'0 0.0
2015-May-19 16:33N 47°44' W 003°22'0 0.0
2015-May-19 15:33N 47°44' W 003°22'0 0.0
2015-May-19 14:33N 47°44' W 003°22'0 0.0
2015-May-19 13:33N 47°44' W 003°22'0 0.1
2015-May-19 12:33N 47°44' W 003°22'0 0.0
2015-May-19 11:33N 47°44' W 003°22'0 0.0
2015-May-19 10:33N 47°44' W 003°22'0 0.0
2015-May-19 09:33N 47°44' W 003°22'2 1.8
2015-May-19 08:33N 47°42' W 003°22'9 8.8
2015-May-19 07:32N 47°38' W 003°34'  

Dump ship's entire track history